sensor_id;sensor_type;location;lat;lon;timestamp;temperature;humidity
80958;DHT22;70419;42.700;23.316;2023-07-20T08:37:20;37.20;26.30
80958;DHT22;70419;42.700;23.316;2023-07-20T08:40:29;34.80;29.00
80958;DHT22;70419;42.700;23.316;2023-07-20T08:42:56;34.70;29.50
80958;DHT22;70419;42.700;23.316;2023-07-20T08:45:27;35.80;27.20
80958;DHT22;70419;42.700;23.316;2023-07-20T08:47:56;37.50;25.40
80958;DHT22;70419;42.700;23.316;2023-07-20T08:50:23;39.00;24.20
80958;DHT22;70419;42.700;23.316;2023-07-20T08:52:52;40.60;22.80
80958;DHT22;70419;42.700;23.316;2023-07-20T08:55:20;41.30;22.20
80958;DHT22;70419;42.700;23.316;2023-07-20T08:57:49;42.30;21.10
80958;DHT22;70419;42.700;23.316;2023-07-20T09:00:17;43.60;19.70
80958;DHT22;70419;42.700;23.316;2023-07-20T09:02:45;45.20;18.30
80958;DHT22;70419;42.700;23.316;2023-07-20T09:05:13;46.10;17.80
80958;DHT22;70419;42.700;23.316;2023-07-20T09:07:39;46.90;16.80
80958;DHT22;70419;42.700;23.316;2023-07-20T09:10:06;47.40;16.70
80958;DHT22;70419;42.700;23.316;2023-07-20T09:12:35;47.90;16.10
80958;DHT22;70419;42.700;23.316;2023-07-20T09:15:01;48.20;15.60
80958;DHT22;70419;42.700;23.316;2023-07-20T09:17:27;48.30;15.80
80958;DHT22;70419;42.700;23.316;2023-07-20T09:19:53;48.20;15.40
80958;DHT22;70419;42.700;23.316;2023-07-20T09:22:19;48.20;15.40
80958;DHT22;70419;42.700;23.316;2023-07-20T09:24:45;47.30;15.70
80958;DHT22;70419;42.700;23.316;2023-07-20T09:27:11;47.00;16.30
80958;DHT22;70419;42.700;23.316;2023-07-20T09:29:51;47.30;16.00
80958;DHT22;70419;42.700;23.316;2023-07-20T09:32:20;47.40;15.80
80958;DHT22;70419;42.700;23.316;2023-07-20T09:34:49;47.90;15.60
80958;DHT22;70419;42.700;23.316;2023-07-20T09:37:23;48.30;15.00
80958;DHT22;70419;42.700;23.316;2023-07-20T09:39:52;48.80;14.10
80958;DHT22;70419;42.700;23.316;2023-07-20T09:42:19;48.90;14.40
80958;DHT22;70419;42.700;23.316;2023-07-20T09:44:46;49.30;14.20
80958;DHT22;70419;42.700;23.316;2023-07-20T09:47:12;50.00;13.50
80958;DHT22;70419;42.700;23.316;2023-07-20T09:49:41;50.40;13.40
80958;DHT22;70419;42.700;23.316;2023-07-20T09:52:08;50.00;13.50
80958;DHT22;70419;42.700;23.316;2023-07-20T09:54:38;49.90;13.60
80958;DHT22;70419;42.700;23.316;2023-07-20T09:57:07;50.10;13.10
80958;DHT22;70419;42.700;23.316;2023-07-20T09:59:36;49.30;13.40
80958;DHT22;70419;42.700;23.316;2023-07-20T10:02:07;47.90;15.30
80958;DHT22;70419;42.700;23.316;2023-07-20T10:04:37;46.60;15.20
80958;DHT22;70419;42.700;23.316;2023-07-20T10:07:05;45.60;15.90
80958;DHT22;70419;42.700;23.316;2023-07-20T10:09:39;44.70;16.20
80958;DHT22;70419;42.700;23.316;2023-07-20T10:12:08;43.50;17.20
80958;DHT22;70419;42.700;23.316;2023-07-20T10:14:41;41.90;18.40
80958;DHT22;70419;42.700;23.316;2023-07-20T10:17:11;41.00;19.00
80958;DHT22;70419;42.700;23.316;2023-07-20T10:19:47;40.10;19.70
80958;DHT22;70419;42.700;23.316;2023-07-20T10:22:19;39.00;20.80
80958;DHT22;70419;42.700;23.316;2023-07-20T10:24:47;38.10;21.50
80958;DHT22;70419;42.700;23.316;2023-07-20T10:27:17;37.60;22.20
80958;DHT22;70419;42.700;23.316;2023-07-20T10:29:43;37.30;22.40
80958;DHT22;70419;42.700;23.316;2023-07-20T10:32:09;36.90;22.70
80958;DHT22;70419;42.700;23.316;2023-07-20T10:34:35;36.70;23.20
80958;DHT22;70419;42.700;23.316;2023-07-20T10:37:01;36.80;22.90
80958;DHT22;70419;42.700;23.316;2023-07-20T10:39:31;36.30;23.10
80958;DHT22;70419;42.700;23.316;2023-07-20T10:42:10;36.20;23.10
80958;DHT22;70419;42.700;23.316;2023-07-20T10:44:39;35.90;23.40
80958;DHT22;70419;42.700;23.316;2023-07-20T10:47:14;35.50;24.00
80958;DHT22;70419;42.700;23.316;2023-07-20T10:50:09;35.20;24.40
80958;DHT22;70419;42.700;23.316;2023-07-20T10:52:40;35.20;24.90
80958;DHT22;70419;42.700;23.316;2023-07-20T10:55:14;35.50;26.20
80958;DHT22;70419;42.700;23.316;2023-07-20T10:57:41;36.00;24.30
80958;DHT22;70419;42.700;23.316;2023-07-20T11:00:14;36.50;23.80
80958;DHT22;70419;42.700;23.316;2023-07-20T11:02:46;37.50;22.90
80958;DHT22;70419;42.700;23.316;2023-07-20T11:05:31;38.60;22.00
80958;DHT22;70419;42.700;23.316;2023-07-20T11:07:57;39.80;21.20
80958;DHT22;70419;42.700;23.316;2023-07-20T11:10:23;40.90;20.00
80958;DHT22;70419;42.700;23.316;2023-07-20T11:13:17;42.90;18.40
80958;DHT22;70419;42.700;23.316;2023-07-20T11:16:03;44.10;17.40
80958;DHT22;70419;42.700;23.316;2023-07-20T11:18:30;44.80;16.80
80958;DHT22;70419;42.700;23.316;2023-07-20T11:20:58;45.50;16.40
80958;DHT22;70419;42.700;23.316;2023-07-20T11:23:25;46.10;15.90
80958;DHT22;70419;42.700;23.316;2023-07-20T11:25:51;47.50;15.10
80958;DHT22;70419;42.700;23.316;2023-07-20T11:28:17;47.90;14.60
80958;DHT22;70419;42.700;23.316;2023-07-20T11:30:43;47.70;14.70
80958;DHT22;70419;42.700;23.316;2023-07-20T11:33:09;48.10;14.70
80958;DHT22;70419;42.700;23.316;2023-07-20T11:35:41;48.80;13.90
80958;DHT22;70419;42.700;23.316;2023-07-20T11:38:07;50.20;13.60
80958;DHT22;70419;42.700;23.316;2023-07-20T11:40:33;51.70;12.60
80958;DHT22;70419;42.700;23.316;2023-07-20T11:42:59;53.20;11.80
80958;DHT22;70419;42.700;23.316;2023-07-20T11:45:25;54.50;11.40
80958;DHT22;70419;42.700;23.316;2023-07-20T11:47:53;55.40;10.80
80958;DHT22;70419;42.700;23.316;2023-07-20T11:50:18;56.70;10.10
80958;DHT22;70419;42.700;23.316;2023-07-20T11:52:44;57.90;9.80
80958;DHT22;70419;42.700;23.316;2023-07-20T11:55:11;59.00;9.20
80958;DHT22;70419;42.700;23.316;2023-07-20T11:57:37;59.80;8.80
80958;DHT22;70419;42.700;23.316;2023-07-20T12:00:04;60.40;8.70
80958;DHT22;70419;42.700;23.316;2023-07-20T12:02:37;60.80;8.20
80958;DHT22;70419;42.700;23.316;2023-07-20T12:05:05;61.50;8.10
80958;DHT22;70419;42.700;23.316;2023-07-20T12:07:34;60.70;8.20
80958;DHT22;70419;42.700;23.316;2023-07-20T12:10:12;60.30;8.30
80958;DHT22;70419;42.700;23.316;2023-07-20T12:12:39;60.30;8.40
80958;DHT22;70419;42.700;23.316;2023-07-20T12:15:32;60.30;8.20
80958;DHT22;70419;42.700;23.316;2023-07-20T12:18:02;60.10;8.10
80958;DHT22;70419;42.700;23.316;2023-07-20T12:20:30;59.60;8.30
80958;DHT22;70419;42.700;23.316;2023-07-20T12:25:42;58.80;8.70
80958;DHT22;70419;42.700;23.316;2023-07-20T12:28:16;58.40;8.90
80958;DHT22;70419;42.700;23.316;2023-07-20T12:30:43;57.60;9.10
80958;DHT22;70419;42.700;23.316;2023-07-20T12:33:09;57.40;9.10
80958;DHT22;70419;42.700;23.316;2023-07-20T12:35:36;56.90;9.10
80958;DHT22;70419;42.700;23.316;2023-07-20T12:38:02;57.00;9.00
80958;DHT22;70419;42.700;23.316;2023-07-20T12:40:28;57.30;9.00
80958;DHT22;70419;42.700;23.316;2023-07-20T12:42:54;57.90;8.80
80958;DHT22;70419;42.700;23.316;2023-07-20T12:45:20;57.80;8.30
80958;DHT22;70419;42.700;23.316;2023-07-20T12:47:46;57.70;8.30
80958;DHT22;70419;42.700;23.316;2023-07-20T12:50:12;56.70;8.60
80958;DHT22;70419;42.700;23.316;2023-07-20T12:52:39;55.60;9.20
80958;DHT22;70419;42.700;23.316;2023-07-20T12:55:09;55.90;9.20
80958;DHT22;70419;42.700;23.316;2023-07-20T12:57:35;56.00;8.80
80958;DHT22;70419;42.700;23.316;2023-07-20T13:00:03;56.50;9.10
80958;DHT22;70419;42.700;23.316;2023-07-20T13:02:31;56.80;9.00
80958;DHT22;70419;42.700;23.316;2023-07-20T13:04:57;56.80;9.00
80958;DHT22;70419;42.700;23.316;2023-07-20T13:07:34;56.70;9.00
80958;DHT22;70419;42.700;23.316;2023-07-20T13:10:01;56.90;9.00
80958;DHT22;70419;42.700;23.316;2023-07-20T13:12:28;56.70;8.90
80958;DHT22;70419;42.700;23.316;2023-07-20T13:14:54;55.80;9.40
80958;DHT22;70419;42.700;23.316;2023-07-20T13:17:21;55.80;9.50
80958;DHT22;70419;42.700;23.316;2023-07-20T13:19:47;55.40;9.50
80958;DHT22;70419;42.700;23.316;2023-07-20T13:22:13;55.30;10.60
80958;DHT22;70419;42.700;23.316;2023-07-20T13:24:40;54.90;9.90
80958;DHT22;70419;42.700;23.316;2023-07-20T13:27:06;54.50;11.10
80958;DHT22;70419;42.700;23.316;2023-07-20T13:29:32;53.40;10.70
80958;DHT22;70419;42.700;23.316;2023-07-20T13:31:59;53.20;10.70
80958;DHT22;70419;42.700;23.316;2023-07-20T13:34:26;53.50;10.70
80958;DHT22;70419;42.700;23.316;2023-07-20T13:36:52;53.50;10.80
80958;DHT22;70419;42.700;23.316;2023-07-20T13:39:18;53.80;10.60
80958;DHT22;70419;42.700;23.316;2023-07-20T13:41:45;53.70;10.60
80958;DHT22;70419;42.700;23.316;2023-07-20T13:44:12;53.40;10.70
80958;DHT22;70419;42.700;23.316;2023-07-20T13:46:37;53.30;10.90
80958;DHT22;70419;42.700;23.316;2023-07-20T13:49:05;52.90;11.00
80958;DHT22;70419;42.700;23.316;2023-07-20T13:51:31;53.10;10.90
80958;DHT22;70419;42.700;23.316;2023-07-20T13:53:59;53.30;11.10
80958;DHT22;70419;42.700;23.316;2023-07-20T13:56:27;53.20;11.20
80958;DHT22;70419;42.700;23.316;2023-07-20T13:58:52;53.30;11.30
80958;DHT22;70419;42.700;23.316;2023-07-20T14:01:18;52.90;11.10
80958;DHT22;70419;42.700;23.316;2023-07-20T14:03:44;52.80;10.90
80958;DHT22;70419;42.700;23.316;2023-07-20T14:06:10;52.20;10.30
80958;DHT22;70419;42.700;23.316;2023-07-20T14:08:39;51.80;10.50
80958;DHT22;70419;42.700;23.316;2023-07-20T14:11:06;51.90;10.60
80958;DHT22;70419;42.700;23.316;2023-07-20T14:13:33;51.20;10.60
80958;DHT22;70419;42.700;23.316;2023-07-20T14:15:59;50.10;11.40
80958;DHT22;70419;42.700;23.316;2023-07-20T14:18:25;50.30;11.40
80958;DHT22;70419;42.700;23.316;2023-07-20T14:20:50;50.40;11.60
80958;DHT22;70419;42.700;23.316;2023-07-20T14:23:16;50.00;11.60
80958;DHT22;70419;42.700;23.316;2023-07-20T14:25:42;50.10;11.90
80958;DHT22;70419;42.700;23.316;2023-07-20T14:28:08;50.00;11.90
80958;DHT22;70419;42.700;23.316;2023-07-20T14:30:33;49.80;12.10
80958;DHT22;70419;42.700;23.316;2023-07-20T14:32:59;49.70;12.40
80958;DHT22;70419;42.700;23.316;2023-07-20T14:35:26;49.50;12.30
80958;DHT22;70419;42.700;23.316;2023-07-20T14:37:52;49.30;12.50
80958;DHT22;70419;42.700;23.316;2023-07-20T14:40:18;49.40;12.50
80958;DHT22;70419;42.700;23.316;2023-07-20T14:42:44;49.40;12.70
80958;DHT22;70419;42.700;23.316;2023-07-20T14:45:10;49.00;12.70
80958;DHT22;70419;42.700;23.316;2023-07-20T14:47:36;49.00;12.80
80958;DHT22;70419;42.700;23.316;2023-07-20T14:50:02;49.00;12.70
80958;DHT22;70419;42.700;23.316;2023-07-20T14:52:28;49.20;13.00
80958;DHT22;70419;42.700;23.316;2023-07-20T14:54:54;49.00;13.20
80958;DHT22;70419;42.700;23.316;2023-07-20T14:57:20;48.80;13.20
80958;DHT22;70419;42.700;23.316;2023-07-20T14:59:50;48.40;13.30
80958;DHT22;70419;42.700;23.316;2023-07-20T15:02:16;48.00;13.60
80958;DHT22;70419;42.700;23.316;2023-07-20T15:04:51;47.70;14.00
80958;DHT22;70419;42.700;23.316;2023-07-20T15:07:21;47.30;14.30
80958;DHT22;70419;42.700;23.316;2023-07-20T15:09:49;47.40;14.30
80958;DHT22;70419;42.700;23.316;2023-07-20T15:12:15;47.30;14.20
80958;DHT22;70419;42.700;23.316;2023-07-20T15:14:43;47.10;14.30
80958;DHT22;70419;42.700;23.316;2023-07-20T15:17:09;46.60;14.90
80958;DHT22;70419;42.700;23.316;2023-07-20T15:19:35;46.50;14.90
80958;DHT22;70419;42.700;23.316;2023-07-20T15:22:02;46.30;14.60
80958;DHT22;70419;42.700;23.316;2023-07-20T15:24:29;46.20;15.10
80958;DHT22;70419;42.700;23.316;2023-07-20T15:26:55;46.30;14.70
80958;DHT22;70419;42.700;23.316;2023-07-20T15:29:21;45.80;14.80
80958;DHT22;70419;42.700;23.316;2023-07-20T15:31:48;45.60;15.00
80958;DHT22;70419;42.700;23.316;2023-07-20T15:34:14;45.30;15.10
80958;DHT22;70419;42.700;23.316;2023-07-20T15:36:41;45.00;15.40
80958;DHT22;70419;42.700;23.316;2023-07-20T15:39:10;44.50;15.70
80958;DHT22;70419;42.700;23.316;2023-07-20T15:41:36;44.10;16.10
80958;DHT22;70419;42.700;23.316;2023-07-20T15:44:02;43.80;16.10
80958;DHT22;70419;42.700;23.316;2023-07-20T15:49:06;42.80;17.00
80958;DHT22;70419;42.700;23.316;2023-07-20T15:51:34;42.00;17.20
80958;DHT22;70419;42.700;23.316;2023-07-20T15:54:04;41.00;17.90
80958;DHT22;70419;42.700;23.316;2023-07-20T15:56:32;39.60;19.50
80958;DHT22;70419;42.700;23.316;2023-07-20T15:58:59;38.20;20.30
80958;DHT22;70419;42.700;23.316;2023-07-20T16:01:24;37.10;21.50
80958;DHT22;70419;42.700;23.316;2023-07-20T16:03:50;36.20;22.50
80958;DHT22;70419;42.700;23.316;2023-07-20T16:06:16;35.50;23.00
80958;DHT22;70419;42.700;23.316;2023-07-20T16:08:42;35.00;23.80
80958;DHT22;70419;42.700;23.316;2023-07-20T16:11:07;34.50;23.90
80958;DHT22;70419;42.700;23.316;2023-07-20T16:13:33;34.10;24.90
80958;DHT22;70419;42.700;23.316;2023-07-20T16:15:59;33.80;25.20
80958;DHT22;70419;42.700;23.316;2023-07-20T16:18:24;33.40;25.30
80958;DHT22;70419;42.700;23.316;2023-07-20T16:20:51;33.30;25.60
80958;DHT22;70419;42.700;23.316;2023-07-20T16:23:18;33.30;25.60
80958;DHT22;70419;42.700;23.316;2023-07-20T16:25:47;33.20;25.70
80958;DHT22;70419;42.700;23.316;2023-07-20T16:28:13;33.00;25.50
80958;DHT22;70419;42.700;23.316;2023-07-20T16:30:39;32.80;25.70
80958;DHT22;70419;42.700;23.316;2023-07-20T16:33:05;32.60;25.70
80958;DHT22;70419;42.700;23.316;2023-07-20T16:35:36;32.60;25.50
80958;DHT22;70419;42.700;23.316;2023-07-20T16:38:02;32.50;26.30
80958;DHT22;70419;42.700;23.316;2023-07-20T16:40:28;32.40;25.90
80958;DHT22;70419;42.700;23.316;2023-07-20T16:42:57;32.20;26.50
80958;DHT22;70419;42.700;23.316;2023-07-20T16:45:23;32.20;26.60
80958;DHT22;70419;42.700;23.316;2023-07-20T16:47:49;32.00;26.90
80958;DHT22;70419;42.700;23.316;2023-07-20T16:50:15;32.00;27.20
80958;DHT22;70419;42.700;23.316;2023-07-20T16:52:41;32.00;27.30
80958;DHT22;70419;42.700;23.316;2023-07-20T16:55:08;32.00;27.00
80958;DHT22;70419;42.700;23.316;2023-07-20T16:57:34;31.90;27.40
80958;DHT22;70419;42.700;23.316;2023-07-20T17:00:00;31.80;27.70
80958;DHT22;70419;42.700;23.316;2023-07-20T17:02:25;31.70;28.00
80958;DHT22;70419;42.700;23.316;2023-07-20T17:04:51;31.50;27.90
80958;DHT22;70419;42.700;23.316;2023-07-20T17:07:17;31.50;28.10
80958;DHT22;70419;42.700;23.316;2023-07-20T17:09:43;31.40;28.30
80958;DHT22;70419;42.700;23.316;2023-07-20T17:12:09;31.20;28.30
80958;DHT22;70419;42.700;23.316;2023-07-20T17:14:35;31.20;28.70
80958;DHT22;70419;42.700;23.316;2023-07-20T17:17:03;30.90;28.90
80958;DHT22;70419;42.700;23.316;2023-07-20T17:19:30;30.90;28.80
80958;DHT22;70419;42.700;23.316;2023-07-20T17:21:55;30.80;29.10
80958;DHT22;70419;42.700;23.316;2023-07-20T17:24:22;30.70;29.20
80958;DHT22;70419;42.700;23.316;2023-07-20T17:26:48;30.60;29.30
80958;DHT22;70419;42.700;23.316;2023-07-20T17:29:14;30.50;29.60
80958;DHT22;70419;42.700;23.316;2023-07-20T17:31:40;30.50;29.80
80958;DHT22;70419;42.700;23.316;2023-07-20T17:34:06;30.40;30.20
80958;DHT22;70419;42.700;23.316;2023-07-20T17:36:32;30.30;30.40
80958;DHT22;70419;42.700;23.316;2023-07-20T17:38:58;30.10;30.80
80958;DHT22;70419;42.700;23.316;2023-07-20T17:41:24;30.00;31.40
80958;DHT22;70419;42.700;23.316;2023-07-20T17:43:49;29.80;31.60
80958;DHT22;70419;42.700;23.316;2023-07-20T17:46:16;29.80;31.80
80958;DHT22;70419;42.700;23.316;2023-07-20T17:48:42;29.80;32.00
80958;DHT22;70419;42.700;23.316;2023-07-20T17:51:09;29.60;32.70
80958;DHT22;70419;42.700;23.316;2023-07-20T17:53:35;29.50;32.80
80958;DHT22;70419;42.700;23.316;2023-07-20T17:56:01;29.40;33.00
80958;DHT22;70419;42.700;23.316;2023-07-20T17:58:27;29.30;33.20
80958;DHT22;70419;42.700;23.316;2023-07-20T18:00:53;29.20;33.50
80958;DHT22;70419;42.700;23.316;2023-07-20T18:03:19;29.10;33.50
80958;DHT22;70419;42.700;23.316;2023-07-20T18:05:45;29.10;33.90
80958;DHT22;70419;42.700;23.316;2023-07-20T18:08:11;28.90;34.10
80958;DHT22;70419;42.700;23.316;2023-07-20T18:10:38;28.90;34.10
80958;DHT22;70419;42.700;23.316;2023-07-20T18:13:05;28.80;34.10
80958;DHT22;70419;42.700;23.316;2023-07-20T18:15:31;28.70;34.20
80958;DHT22;70419;42.700;23.316;2023-07-20T18:17:57;28.60;34.10
80958;DHT22;70419;42.700;23.316;2023-07-20T18:20:23;28.60;34.10
80958;DHT22;70419;42.700;23.316;2023-07-20T18:22:48;28.60;34.30
80958;DHT22;70419;42.700;23.316;2023-07-20T18:25:14;28.50;34.50
80958;DHT22;70419;42.700;23.316;2023-07-20T18:27:40;28.40;34.40
80958;DHT22;70419;42.700;23.316;2023-07-20T18:30:06;28.30;34.60
80958;DHT22;70419;42.700;23.316;2023-07-20T18:32:32;28.20;34.80
80958;DHT22;70419;42.700;23.316;2023-07-20T18:34:58;28.20;35.00
80958;DHT22;70419;42.700;23.316;2023-07-20T18:37:24;28.10;35.20
80958;DHT22;70419;42.700;23.316;2023-07-20T18:39:50;28.20;35.50
80958;DHT22;70419;42.700;23.316;2023-07-20T18:42:16;28.10;35.50
80958;DHT22;70419;42.700;23.316;2023-07-20T18:44:43;28.10;35.60
80958;DHT22;70419;42.700;23.316;2023-07-20T18:47:09;28.10;36.00
80958;DHT22;70419;42.700;23.316;2023-07-20T18:49:35;28.10;36.00
80958;DHT22;70419;42.700;23.316;2023-07-20T18:52:05;28.00;36.20
80958;DHT22;70419;42.700;23.316;2023-07-20T18:54:31;27.90;36.60
80958;DHT22;70419;42.700;23.316;2023-07-20T18:56:57;27.80;36.80
80958;DHT22;70419;42.700;23.316;2023-07-20T18:59:23;27.70;37.20
80958;DHT22;70419;42.700;23.316;2023-07-20T19:01:49;27.70;37.30
80958;DHT22;70419;42.700;23.316;2023-07-20T19:04:14;27.60;37.60
80958;DHT22;70419;42.700;23.316;2023-07-20T19:06:40;27.60;37.80
80958;DHT22;70419;42.700;23.316;2023-07-20T19:09:06;27.60;38.10
80958;DHT22;70419;42.700;23.316;2023-07-20T19:11:31;27.50;38.30
80958;DHT22;70419;42.700;23.316;2023-07-20T19:13:57;27.40;38.40
80958;DHT22;70419;42.700;23.316;2023-07-20T19:16:23;27.40;38.60
80958;DHT22;70419;42.700;23.316;2023-07-20T19:18:51;27.40;38.70
80958;DHT22;70419;42.700;23.316;2023-07-20T19:21:17;27.40;38.90
80958;DHT22;70419;42.700;23.316;2023-07-20T19:23:43;27.30;39.00
80958;DHT22;70419;42.700;23.316;2023-07-20T19:26:09;27.30;40.10
80958;DHT22;70419;42.700;23.316;2023-07-20T19:28:36;27.40;39.40
80958;DHT22;70419;42.700;23.316;2023-07-20T19:31:03;27.20;39.40
80958;DHT22;70419;42.700;23.316;2023-07-20T19:33:29;27.20;39.70
80958;DHT22;70419;42.700;23.316;2023-07-20T19:35:55;27.10;39.90
80958;DHT22;70419;42.700;23.316;2023-07-20T19:38:23;27.10;40.40
80958;DHT22;70419;42.700;23.316;2023-07-20T19:40:49;27.00;40.40
80958;DHT22;70419;42.700;23.316;2023-07-20T19:43:16;26.90;40.50
80958;DHT22;70419;42.700;23.316;2023-07-20T19:45:41;26.80;41.00
80958;DHT22;70419;42.700;23.316;2023-07-20T19:48:07;26.80;41.00
80958;DHT22;70419;42.700;23.316;2023-07-20T19:50:33;26.70;41.20
80958;DHT22;70419;42.700;23.316;2023-07-20T19:52:59;26.70;41.50
80958;DHT22;70419;42.700;23.316;2023-07-20T19:55:25;26.60;41.70
80958;DHT22;70419;42.700;23.316;2023-07-20T19:57:52;26.60;41.90
80958;DHT22;70419;42.700;23.316;2023-07-20T20:00:19;26.50;42.10
80958;DHT22;70419;42.700;23.316;2023-07-20T20:02:46;26.50;42.30
80958;DHT22;70419;42.700;23.316;2023-07-20T20:05:12;26.40;42.30
80958;DHT22;70419;42.700;23.316;2023-07-20T20:07:37;26.40;42.50
80958;DHT22;70419;42.700;23.316;2023-07-20T20:10:04;26.30;43.00
80958;DHT22;70419;42.700;23.316;2023-07-20T20:12:30;26.20;43.40
80958;DHT22;70419;42.700;23.316;2023-07-20T20:14:56;26.10;43.60
80958;DHT22;70419;42.700;23.316;2023-07-20T20:17:22;26.10;43.80
80958;DHT22;70419;42.700;23.316;2023-07-20T20:19:48;26.00;43.40
80958;DHT22;70419;42.700;23.316;2023-07-20T20:22:15;26.00;43.80
80958;DHT22;70419;42.700;23.316;2023-07-20T20:24:41;26.00;43.80
80958;DHT22;70419;42.700;23.316;2023-07-20T20:27:07;25.90;44.40
80958;DHT22;70419;42.700;23.316;2023-07-20T20:29:33;25.90;44.50
80958;DHT22;70419;42.700;23.316;2023-07-20T20:32:02;25.80;44.50
80958;DHT22;70419;42.700;23.316;2023-07-20T20:34:32;25.80;44.70
80958;DHT22;70419;42.700;23.316;2023-07-20T20:36:59;25.80;44.80
80958;DHT22;70419;42.700;23.316;2023-07-20T20:39:27;25.70;44.90
80958;DHT22;70419;42.700;23.316;2023-07-20T20:41:52;25.70;44.80
80958;DHT22;70419;42.700;23.316;2023-07-20T20:44:18;25.70;44.90
80958;DHT22;70419;42.700;23.316;2023-07-20T20:46:48;25.70;45.20
80958;DHT22;70419;42.700;23.316;2023-07-20T20:49:14;25.70;45.50
80958;DHT22;70419;42.700;23.316;2023-07-20T20:51:41;25.50;45.90
80958;DHT22;70419;42.700;23.316;2023-07-20T20:54:13;25.30;46.30
80958;DHT22;70419;42.700;23.316;2023-07-20T20:56:38;25.10;46.90
80958;DHT22;70419;42.700;23.316;2023-07-20T20:59:05;25.00;47.30
80958;DHT22;70419;42.700;23.316;2023-07-20T21:01:32;24.90;47.50
80958;DHT22;70419;42.700;23.316;2023-07-20T21:03:57;24.80;47.60
80958;DHT22;70419;42.700;23.316;2023-07-20T21:06:23;24.90;47.50
80958;DHT22;70419;42.700;23.316;2023-07-20T21:08:49;24.80;47.40
80958;DHT22;70419;42.700;23.316;2023-07-20T21:11:15;24.90;47.50
80958;DHT22;70419;42.700;23.316;2023-07-20T21:13:41;24.90;47.40
80958;DHT22;70419;42.700;23.316;2023-07-20T21:16:06;24.90;47.40
80958;DHT22;70419;42.700;23.316;2023-07-20T21:18:32;24.90;47.50
80958;DHT22;70419;42.700;23.316;2023-07-20T21:20:58;24.80;47.40
80958;DHT22;70419;42.700;23.316;2023-07-20T21:23:23;24.80;47.60
80958;DHT22;70419;42.700;23.316;2023-07-20T21:25:50;24.90;47.60
80958;DHT22;70419;42.700;23.316;2023-07-20T21:28:16;24.90;47.50
80958;DHT22;70419;42.700;23.316;2023-07-20T21:30:42;25.10;47.10
80958;DHT22;70419;42.700;23.316;2023-07-20T21:33:08;25.10;47.20
80958;DHT22;70419;42.700;23.316;2023-07-20T21:35:36;25.10;47.40
80958;DHT22;70419;42.700;23.316;2023-07-20T21:38:02;25.00;47.60
80958;DHT22;70419;42.700;23.316;2023-07-20T21:40:28;24.90;48.10
80958;DHT22;70419;42.700;23.316;2023-07-20T21:42:54;24.90;48.20
80958;DHT22;70419;42.700;23.316;2023-07-20T21:45:19;24.90;48.20
80958;DHT22;70419;42.700;23.316;2023-07-20T21:47:49;24.90;48.20
80958;DHT22;70419;42.700;23.316;2023-07-20T21:50:15;24.90;48.00
80958;DHT22;70419;42.700;23.316;2023-07-20T21:52:41;24.90;48.10
80958;DHT22;70419;42.700;23.316;2023-07-20T21:55:07;25.00;48.20
80958;DHT22;70419;42.700;23.316;2023-07-20T21:57:33;25.00;48.20
80958;DHT22;70419;42.700;23.316;2023-07-20T21:59:59;24.90;48.50
80958;DHT22;70419;42.700;23.316;2023-07-20T22:02:25;24.70;49.00
80958;DHT22;70419;42.700;23.316;2023-07-20T22:04:51;24.70;49.40
80958;DHT22;70419;42.700;23.316;2023-07-20T22:07:17;24.60;49.70
80958;DHT22;70419;42.700;23.316;2023-07-20T22:09:44;24.60;49.50
80958;DHT22;70419;42.700;23.316;2023-07-20T22:12:13;24.50;49.20
80958;DHT22;70419;42.700;23.316;2023-07-20T22:14:41;24.70;49.30
80958;DHT22;70419;42.700;23.316;2023-07-20T22:17:08;24.70;49.20
80958;DHT22;70419;42.700;23.316;2023-07-20T22:19:35;24.80;49.10
80958;DHT22;70419;42.700;23.316;2023-07-20T22:22:01;24.90;49.10
80958;DHT22;70419;42.700;23.316;2023-07-20T22:24:27;24.90;48.90
80958;DHT22;70419;42.700;23.316;2023-07-20T22:26:53;25.00;49.00
80958;DHT22;70419;42.700;23.316;2023-07-20T22:29:19;25.00;49.10
80958;DHT22;70419;42.700;23.316;2023-07-20T22:31:45;25.00;49.00
80958;DHT22;70419;42.700;23.316;2023-07-20T22:34:13;25.00;48.90
80958;DHT22;70419;42.700;23.316;2023-07-20T22:36:38;25.10;49.00
80958;DHT22;70419;42.700;23.316;2023-07-20T22:39:04;24.90;49.10
80958;DHT22;70419;42.700;23.316;2023-07-20T22:41:30;25.00;49.10
80958;DHT22;70419;42.700;23.316;2023-07-20T22:43:56;25.00;49.10
80958;DHT22;70419;42.700;23.316;2023-07-20T22:46:23;24.90;49.10
80958;DHT22;70419;42.700;23.316;2023-07-20T22:48:49;25.00;49.40
80958;DHT22;70419;42.700;23.316;2023-07-20T22:51:15;24.90;50.40
80958;DHT22;70419;42.700;23.316;2023-07-20T22:53:40;25.00;49.60
80958;DHT22;70419;42.700;23.316;2023-07-20T22:56:06;24.90;49.70
80958;DHT22;70419;42.700;23.316;2023-07-20T22:58:32;24.80;49.70
80958;DHT22;70419;42.700;23.316;2023-07-20T23:00:59;24.80;49.80
80958;DHT22;70419;42.700;23.316;2023-07-20T23:03:26;24.80;49.90
80958;DHT22;70419;42.700;23.316;2023-07-20T23:05:51;24.80;50.00
80958;DHT22;70419;42.700;23.316;2023-07-20T23:08:18;24.70;49.90
80958;DHT22;70419;42.700;23.316;2023-07-20T23:10:44;24.70;50.10
80958;DHT22;70419;42.700;23.316;2023-07-20T23:13:09;24.70;50.30
80958;DHT22;70419;42.700;23.316;2023-07-20T23:15:35;24.60;50.50
80958;DHT22;70419;42.700;23.316;2023-07-20T23:18:04;24.50;50.60
80958;DHT22;70419;42.700;23.316;2023-07-20T23:20:29;24.50;50.90
80958;DHT22;70419;42.700;23.316;2023-07-20T23:22:55;24.50;51.00
80958;DHT22;70419;42.700;23.316;2023-07-20T23:25:22;24.40;51.10
80958;DHT22;70419;42.700;23.316;2023-07-20T23:27:48;24.40;51.40
80958;DHT22;70419;42.700;23.316;2023-07-20T23:30:16;24.30;51.80
80958;DHT22;70419;42.700;23.316;2023-07-20T23:32:42;24.30;52.00
80958;DHT22;70419;42.700;23.316;2023-07-20T23:35:08;24.10;52.20
80958;DHT22;70419;42.700;23.316;2023-07-20T23:37:35;24.10;52.20
80958;DHT22;70419;42.700;23.316;2023-07-20T23:40:02;24.10;52.20
80958;DHT22;70419;42.700;23.316;2023-07-20T23:42:34;24.10;52.30
80958;DHT22;70419;42.700;23.316;2023-07-20T23:45:00;24.00;52.20
80958;DHT22;70419;42.700;23.316;2023-07-20T23:47:25;24.00;52.40
80958;DHT22;70419;42.700;23.316;2023-07-20T23:49:51;24.00;52.50
80958;DHT22;70419;42.700;23.316;2023-07-20T23:52:17;24.00;52.60
80958;DHT22;70419;42.700;23.316;2023-07-20T23:54:44;23.90;52.50
80958;DHT22;70419;42.700;23.316;2023-07-20T23:57:10;23.90;52.60
80958;DHT22;70419;42.700;23.316;2023-07-20T23:59:36;23.80;52.80
